Time;durP1;ratioP1;P1;durP2;ratioP2;P2;SDS_P1;SDS_P2;PMS_P1;PMS_P2;Temp;Humidity;BMP_temperature;BMP_pressure;BME280_temperature;BME280_humidity;BME280_pressure;Samples;Min_cycle;Max_cycle;Signal;HPM_P1;HPM_P2
2022/12/24 00:01:14;;;;;;;14.57;3.05;;;;;;;;;;4996164;28;20033;-72
2022/12/24 00:03:40;;;;;;;16.50;3.20;;;;;;;;;;4996203;28;20039;-72
2022/12/24 00:06:15;;;;;;;14.13;3.50;;;;;;;;;;4996114;28;20384;-71
2022/12/24 00:08:41;;;;;;;24.23;3.92;;;;;;;;;;4995723;28;20527;-72
2022/12/24 00:11:07;;;;;;;16.20;3.63;;;;;;;;;;4996065;28;20058;-72
2022/12/24 00:13:33;;;;;;;19.63;3.47;;;16.10;91.40;;;;;;4995927;28;20547;-72
2022/12/24 00:15:59;;;;;;;13.15;3.13;;;;;;;;;;4996238;28;20019;-72
2022/12/24 00:18:25;;;;;;;14.90;3.33;;;;;;;;;;4995903;28;20087;-72
2022/12/24 00:20:51;;;;;;;18.55;4.13;;;;;;;;;;4995947;28;20365;-72
2022/12/24 00:23:17;;;;;;;15.43;3.95;;;;;;;;;;4995844;28;20089;-72
2022/12/24 00:25:43;;;;;;;18.52;3.85;;;;;;;;;;4995705;28;20081;-72
2022/12/24 00:28:10;;;;;;;11.45;3.30;;;;;;;;;;4995429;28;20104;-72
2022/12/24 00:30:37;;;;;;;13.55;3.35;;;16.10;89.40;;;;;;4995665;28;20026;-72
2022/12/24 00:33:03;;;;;;;11.82;3.22;;;;;;;;;;4995554;28;20161;-72
2022/12/24 00:35:29;;;;;;;14.32;3.00;;;;;;;;;;4995555;28;20516;-72
2022/12/24 00:37:55;;;;;;;12.32;3.08;;;;;;;;;;4995720;28;20026;-79
2022/12/24 00:40:21;;;;;;;14.82;3.95;;;;;;;;;;4995786;28;20038;-79
2022/12/24 00:42:47;;;;;;;16.67;3.70;;;;;;;;;;4995721;28;20041;-77
2022/12/24 00:45:13;;;;;;;15.85;2.95;;;;;;;;;;4995507;28;20049;-80
2022/12/24 00:47:39;;;;;;;13.93;3.67;;;;;;;;;;4995552;28;20044;-78
2022/12/24 00:50:05;;;;;;;17.50;3.97;;;;;;;;;;4995523;28;20048;-79
2022/12/24 00:52:31;;;;;;;18.05;4.03;;;;;;;;;;4995456;28;20027;-76
2022/12/24 00:54:57;;;;;;;10.30;2.78;;;;;;;;;;4995255;28;20098;-79
2022/12/24 00:57:23;;;;;;;16.58;3.38;;;;;;;;;;4995392;28;20027;-80
2022/12/24 00:59:49;;;;;;;14.95;3.10;;;;;;;;;;4995318;28;20556;-79
2022/12/24 01:02:15;;;;;;;13.32;3.50;;;;;;;;;;4995369;28;20030;-79
2022/12/24 01:07:26;;;;;;;14.05;2.80;;;;;;;;;;4995281;28;20037;-79
2022/12/24 01:09:52;;;;;;;12.98;2.72;;;;;;;;;;4994775;28;20113;-79
2022/12/24 01:12:18;;;;;;;15.32;3.55;;;;;;;;;;4994990;28;20030;-79
2022/12/24 01:14:44;;;;;;;16.13;3.05;;;;;;;;;;4994912;28;20042;-79
2022/12/24 01:17:10;;;;;;;12.20;3.00;;;;;;;;;;4995159;28;20027;-79
2022/12/24 01:19:36;;;;;;;12.90;2.90;;;;;;;;;;4994879;28;20031;-79
2022/12/24 01:22:02;;;;;;;14.43;3.30;;;;;;;;;;4994742;28;20431;-79
2022/12/24 01:24:28;;;;;;;19.10;3.35;;;;;;;;;;4994629;28;20109;-79
2022/12/24 01:26:54;;;;;;;12.98;2.70;;;;;;;;;;4976928;28;20165;-77
2022/12/24 01:29:21;;;;;;;17.85;3.40;;;;;;;;;;4994508;28;20050;-79
2022/12/24 01:31:48;;;;;;;11.98;2.72;;;;;;;;;;4994613;28;20068;-79
2022/12/24 01:34:14;;;;;;;14.18;3.05;;;;;;;;;;4994500;28;20125;-73
2022/12/24 01:36:40;;;;;;;10.40;2.95;;;;;;;;;;4994476;28;20065;-73
2022/12/24 01:39:06;;;;;;;13.65;2.95;;;;;;;;;;4994455;28;20038;-72
2022/12/24 01:44:25;;;;;;;8.20;2.60;;;15.90;79.60;;;;;;4994645;28;20096;-73
2022/12/24 01:46:54;;;;;;;13.07;3.30;;;16.00;85.20;;;;;;4994267;28;20118;-70
2022/12/24 01:49:20;;;;;;;15.45;3.70;;;;;;;;;;4994213;28;20027;-71
2022/12/24 01:51:49;;;;;;;8.60;2.30;;;;;;;;;;4994293;28;20090;-71
2022/12/24 01:54:24;;;;;;;10.80;2.60;;;;;;;;;;4994004;28;20042;-71
2022/12/24 01:57:07;;;;;;;11.32;2.63;;;15.90;92.50;;;;;;4994113;28;20106;-71
2022/12/24 01:59:34;;;;;;;10.48;2.67;;;16.00;92.60;;;;;;4993958;28;20034;-71
2022/12/24 02:02:01;;;;;;;14.43;2.92;;;;;;;;;;4994005;28;20030;-71
2022/12/24 02:04:34;;;;;;;14.23;2.80;;;16.00;90.20;;;;;;4993859;28;20026;-71
2022/12/24 02:07:01;;;;;;;11.13;2.78;;;;;;;;;;4993833;28;20030;-71
2022/12/24 02:09:27;;;;;;;13.50;2.80;;;;;;;;;;4993817;28;20038;-77
2022/12/24 02:11:53;;;;;;;12.23;2.85;;;;;;;;;;4976636;28;20397;-71
2022/12/24 02:14:19;;;;;;;9.90;2.03;;;;;;;;;;4993638;28;20034;-71
2022/12/24 02:16:55;;;;;;;9.10;2.28;;;;;;;;;;4993748;28;20030;-71
2022/12/24 02:19:40;;;;;;;6.88;2.17;;;;;;;;;;4993688;28;20074;-70
2022/12/24 02:22:17;;;;;;;10.02;2.50;;;;;;;;;;4993051;28;20034;-71
2022/12/24 02:25:24;;;;;;;14.43;3.45;;;16.00;89.60;;;;;;4993556;28;20437;-70
2022/12/24 02:27:55;;;;;;;16.92;2.95;;;16.00;90.00;;;;;;4914160;29;20059;-77
2022/12/24 02:30:41;;;;;;;10.35;2.58;;;;;;;;;;4980075;28;20094;-71
2022/12/24 02:33:22;;;;;;;13.05;2.90;;;;;;;;;;4993313;28;20034;-71
2022/12/24 02:36:07;;;;;;;9.68;2.65;;;;;;;;;;4993409;28;20113;-71
2022/12/24 02:39:08;;;;;;;12.07;2.38;;;15.90;92.40;;;;;;4975807;28;20496;-71
2022/12/24 02:44:24;;;;;;;11.90;3.13;;;;;;;;;;4993242;28;20037;-71
2022/12/24 02:46:51;;;;;;;10.68;2.75;;;;;;;;;;4993266;28;20026;-77
2022/12/24 02:49:17;;;;;;;12.45;2.78;;;;;;;;;;4993323;28;20441;-78
2022/12/24 02:51:43;;;;;;;11.10;2.50;;;;;;;;;;4993068;28;20026;-78
2022/12/24 02:54:09;;;;;;;8.90;2.65;;;;;;;;;;4992996;28;20133;-78
2022/12/24 02:56:59;;;;;;;13.30;3.47;;;16.00;85.50;;;;;;4993295;28;20022;-78
2022/12/24 02:59:58;;;;;;;11.73;2.33;;;15.90;82.10;;;;;;4993153;28;20045;-78
2022/12/24 03:02:26;;;;;;;10.52;2.35;;;15.90;86.70;;;;;;4993067;28;20488;-78
2022/12/24 03:05:11;;;;;;;10.68;2.90;;;15.80;85.90;;;;;;4993010;28;20042;-78
2022/12/24 03:08:04;;;;;;;12.95;2.40;;;15.80;84.70;;;;;;4993033;28;20030;-71
2022/12/24 03:11:02;;;;;;;9.18;2.05;;;15.90;91.00;;;;;;4992397;28;20093;-71
2022/12/24 03:13:28;;;;;;;9.95;1.98;;;15.80;90.30;;;;;;4992849;28;20026;-71
2022/12/24 03:15:54;;;;;;;12.70;2.58;;;;;;;;;;4992803;28;20341;-72
2022/12/24 03:18:22;;;;;;;10.95;3.15;;;;;;;;;;4993056;28;20383;-71
2022/12/24 03:21:11;;;;;;;9.77;2.40;;;15.80;92.10;;;;;;4992737;28;20034;-71
2022/12/24 03:23:37;;;;;;;10.32;2.35;;;;;;;;;;4992244;28;20050;-71
2022/12/24 03:26:06;;;;;;;10.48;2.50;;;15.80;91.20;;;;;;4992854;28;20477;-71
2022/12/24 03:28:32;;;;;;;8.32;2.00;;;;;;;;;;4992462;28;20046;-71
2022/12/24 03:31:01;;;;;;;10.20;2.55;;;;;;;;;;4992712;28;20093;-71
2022/12/24 03:33:27;;;;;;;10.70;2.65;;;;;;;;;;4995636;28;20033;-72
2022/12/24 03:35:53;;;;;;;14.32;3.35;;;;;;;;;;4996696;28;20034;-71
2022/12/24 03:38:19;;;;;;;8.98;2.80;;;;;;;;;;4996667;28;20033;-71
2022/12/24 03:40:45;;;;;;;12.10;3.05;;;;;;;;;;4996633;28;20105;-72
2022/12/24 03:43:11;;;;;;;13.57;2.83;;;;;;;;;;4996757;28;20030;-79
2022/12/24 03:45:37;;;;;;;17.17;2.90;;;;;;;;;;4996593;28;20413;-78
2022/12/24 03:48:03;;;;;;;12.52;3.00;;;;;;;;;;4996543;28;20034;-78
2022/12/24 03:50:29;;;;;;;11.38;2.45;;;;;;;;;;4996542;28;20078;-78
2022/12/24 03:52:55;;;;;;;11.00;2.80;;;;;;;;;;4996417;28;20068;-78
2022/12/24 03:55:21;;;;;;;8.73;2.17;;;;;;;;;;4996653;28;20026;-78
2022/12/24 03:57:47;;;;;;;8.90;2.22;;;;;;;;;;4996328;28;20035;-78
2022/12/24 04:00:13;;;;;;;9.32;3.03;;;;;;;;;;4996468;28;20057;-78
2022/12/24 04:02:40;;;;;;;15.30;3.28;;;;;;;;;;4996330;28;20075;-79
2022/12/24 04:05:06;;;;;;;11.88;2.88;;;15.80;87.90;;;;;;4996251;28;20465;-79
2022/12/24 04:07:33;;;;;;;12.77;2.28;;;;;;;;;;4996162;28;20026;-78
2022/12/24 04:09:59;;;;;;;8.75;2.58;;;;;;;;;;4996117;28;20027;-79
2022/12/24 04:12:25;;;;;;;16.45;2.83;;;;;;;;;;4996041;28;20125;-79
2022/12/24 04:14:50;;;;;;;8.88;2.13;;;;;;;;;;4995897;28;20093;-79
2022/12/24 04:17:17;;;;;;;11.27;2.83;;;;;;;;;;4996009;28;20527;-79
2022/12/24 04:19:43;;;;;;;10.80;2.67;;;;;;;;;;4996145;28;20076;-73
2022/12/24 04:22:09;;;;;;;12.73;2.80;;;;;;;;;;4995870;28;20031;-72
2022/12/24 04:24:35;;;;;;;13.75;3.33;;;;;;;;;;4995825;28;20037;-73
2022/12/24 04:27:01;;;;;;;10.88;2.63;;;;;;;;;;4995424;28;20026;-72
2022/12/24 04:29:27;;;;;;;10.63;2.25;;;;;;;;;;4995743;28;20037;-72
2022/12/24 04:31:53;;;;;;;17.65;3.03;;;;;;;;;;4995658;28;20035;-72
2022/12/24 04:34:18;;;;;;;11.15;2.80;;;;;;;;;;4995545;28;20113;-72
2022/12/24 04:36:44;;;;;;;10.65;2.65;;;;;;;;;;4995660;28;20030;-79
2022/12/24 04:39:10;;;;;;;12.40;2.65;;;;;;;;;;4995813;28;20112;-73
2022/12/24 04:41:36;;;;;;;15.50;3.13;;;;;;;;;;4995451;28;20052;-73
2022/12/24 04:44:02;;;;;;;18.60;3.28;;;;;;;;;;4994798;28;20037;-72
2022/12/24 04:46:32;;;;;;;11.57;2.75;;;;;;;;;;4995406;28;20113;-72
2022/12/24 04:48:58;;;;;;;17.63;3.13;;;;;;;;;;4995428;28;20113;-72
2022/12/24 04:51:26;;;;;;;10.32;3.20;;;16.90;81.60;;;;;;4995576;28;20360;-72
2022/12/24 04:53:52;;;;;;;11.00;2.92;;;;;;;;;;4995235;28;20108;-72
2022/12/24 04:56:20;;;;;;;19.58;3.50;;;15.70;82.90;;;;;;4995605;28;20372;-80
2022/12/24 04:58:47;;;;;;;12.90;2.72;;;15.70;79.80;;;;;;4995273;28;20077;-79
2022/12/24 05:01:21;;;;;;;13.82;2.95;;;15.70;83.90;;;;;;4977817;28;20112;-79
2022/12/24 05:03:47;;;;;;;11.73;3.15;;;;;;;;;;4995180;28;20081;-79
2022/12/24 05:06:15;;;;;;;13.30;3.33;;;15.70;82.30;;;;;;4995085;28;20089;-79
2022/12/24 05:08:42;;;;;;;17.98;3.10;;;;;;;;;;4995017;28;20106;-79
2022/12/24 05:11:08;;;;;;;14.60;3.22;;;;;;;;;;4994984;28;20110;-79
2022/12/24 05:13:34;;;;;;;16.25;3.50;;;;;;;;;;4995033;28;20042;-72
2022/12/24 05:16:00;;;;;;;16.08;3.55;;;;;;;;;;4995073;28;20073;-72
2022/12/24 05:18:26;;;;;;;17.50;3.65;;;;;;;;;;4994833;28;20404;-73
2022/12/24 05:20:53;;;;;;;17.52;4.22;;;;;;;;;;4994935;28;20451;-72
2022/12/24 05:26:26;;;;;;;15.32;3.53;;;15.70;74.40;;;;;;4994765;28;20053;-72
2022/12/24 05:28:53;;;;;;;14.63;2.95;;;15.60;74.30;;;;;;4994551;28;20046;-72
2022/12/24 05:31:20;;;;;;;11.45;3.28;;;;;;;;;;4994705;28;20594;-72
2022/12/24 05:33:46;;;;;;;12.15;3.33;;;;;;;;;;4994551;28;20401;-73
2022/12/24 05:36:12;;;;;;;21.88;3.95;;;;;;;;;;4994550;28;20053;-72
2022/12/24 05:38:38;;;;;;;15.77;3.42;;;;;;;;;;4994508;28;20465;-72
2022/12/24 05:41:04;;;;;;;12.70;3.25;;;;;;;;;;4994407;28;20026;-72
2022/12/24 05:43:30;;;;;;;14.98;2.95;;;;;;;;;;4994384;28;20400;-72
2022/12/24 05:46:01;;;;;;;16.15;3.35;;;15.60;69.40;;;;;;4994374;28;20035;-73
2022/12/24 05:48:27;;;;;;;10.77;3.15;;;;;;;;;;4994187;28;20026;-72
2022/12/24 05:50:53;;;;;;;16.45;3.30;;;15.70;79.90;;;;;;4994308;28;20524;-72
2022/12/24 05:53:19;;;;;;;17.45;3.30;;;;;;;;;;4994114;28;20030;-73
2022/12/24 05:55:45;;;;;;;17.48;3.45;;;;;;;;;;4993525;28;20440;-72
2022/12/24 05:58:11;;;;;;;14.95;3.55;;;;;;;;;;4994077;28;20030;-72
2022/12/24 06:00:37;;;;;;;12.93;3.20;;;;;;;;;;4994047;28;20033;-72
2022/12/24 06:03:03;;;;;;;10.38;2.80;;;;;;;;;;4994008;28;20065;-72
2022/12/24 06:05:30;;;;;;;16.42;3.33;;;;;;;;;;4993847;28;20041;-72
2022/12/24 06:07:56;;;;;;;16.80;4.13;;;;;;;;;;4993885;28;20054;-72
2022/12/24 06:10:22;;;;;;;12.35;3.20;;;;;;;;;;4993376;28;20038;-73
2022/12/24 06:12:48;;;;;;;14.10;3.42;;;;;;;;;;4993666;28;20072;-72
2022/12/24 06:15:14;;;;;;;12.80;3.28;;;;;;;;;;4996485;28;20400;-73
2022/12/24 06:17:40;;;;;;;18.70;4.10;;;;;;;;;;4993661;28;20037;-73
2022/12/24 06:20:06;;;;;;;15.40;3.25;;;;;;;;;;4993673;28;20041;-73
2022/12/24 06:22:32;;;;;;;14.65;3.65;;;;;;;;;;4993539;28;20070;-72
2022/12/24 06:24:58;;;;;;;10.18;3.15;;;;;;;;;;4993581;28;20037;-72
2022/12/24 06:27:24;;;;;;;10.60;2.55;;;;;;;;;;4993316;28;20125;-78
2022/12/24 06:29:50;;;;;;;10.27;3.28;;;;;;;;;;4993599;28;20161;-78
2022/12/24 06:32:16;;;;;;;18.30;3.25;;;;;;;;;;4993453;28;20034;-76
2022/12/24 06:34:42;;;;;;;14.52;3.78;;;;;;;;;;4993462;28;20516;-75
2022/12/24 06:37:17;;;;;;;18.10;3.63;;;;;;;;;;4993418;28;20069;-78
2022/12/24 06:39:42;;;;;;;17.73;3.20;;;;;;;;;;4993409;28;20027;-79
2022/12/24 06:42:08;;;;;;;19.80;3.50;;;;;;;;;;4993319;28;20369;-79
2022/12/24 06:44:34;;;;;;;13.65;3.40;;;;;;;;;;4993319;28;20093;-73
2022/12/24 06:47:00;;;;;;;13.82;3.88;;;;;;;;;;4993294;28;20026;-78
2022/12/24 06:49:26;;;;;;;17.20;4.20;;;;;;;;;;4993224;28;20026;-79
2022/12/24 06:51:52;;;;;;;11.25;2.95;;;;;;;;;;4993278;28;20076;-78
2022/12/24 06:54:18;;;;;;;15.38;3.55;;;;;;;;;;4993113;28;20039;-78
2022/12/24 06:56:44;;;;;;;13.15;3.72;;;;;;;;;;4993148;28;20026;-79
2022/12/24 06:59:10;;;;;;;23.30;4.47;;;;;;;;;;4993130;28;20030;-78
2022/12/24 07:01:36;;;;;;;18.05;4.18;;;;;;;;;;4993016;28;20109;-78
2022/12/24 07:04:02;;;;;;;15.75;4.10;;;;;;;;;;4993128;28;20031;-72
2022/12/24 07:06:29;;;;;;;15.02;4.57;;;15.70;74.30;;;;;;4992884;28;20027;-78
2022/12/24 07:08:55;;;;;;;12.25;5.15;;;;;;;;;;4992817;28;20042;-78
2022/12/24 07:11:22;;;;;;;17.08;5.68;;;15.80;79.90;;;;;;4993019;28;20030;-78
2022/12/24 07:13:48;;;;;;;13.10;5.78;;;;;;;;;;4992784;28;20176;-78
2022/12/24 07:16:14;;;;;;;23.23;7.68;;;;;;;;;;4993187;28;20061;-78
2022/12/24 07:18:40;;;;;;;14.57;7.50;;;;;;;;;;4992743;28;20038;-78
2022/12/24 07:21:06;;;;;;;18.73;7.63;;;;;;;;;;4992838;28;20027;-78
2022/12/24 07:23:33;;;;;;;13.27;7.85;;;;;;;;;;4992801;28;20031;-73
2022/12/24 07:26:03;;;;;;;15.75;8.60;;;15.80;80.70;;;;;;4992824;28;20477;-73
2022/12/24 07:28:29;;;;;;;20.17;9.52;;;;;;;;;;4992602;28;20049;-73
2022/12/24 07:30:56;;;;;;;18.33;9.30;;;;;;;;;;4992794;28;20045;-72
2022/12/24 07:33:22;;;;;;;18.48;9.32;;;;;;;;;;4992578;28;20037;-72
2022/12/24 07:35:48;;;;;;;19.65;9.38;;;;;;;;;;4992663;28;20397;-73
2022/12/24 07:38:14;;;;;;;21.15;9.90;;;;;;;;;;4992694;28;20045;-72
2022/12/24 07:40:40;;;;;;;17.40;9.88;;;;;;;;;;4992654;28;20045;-78
2022/12/24 07:43:06;;;;;;;16.92;9.00;;;;;;;;;;4992649;28;20026;-73
2022/12/24 07:45:32;;;;;;;12.85;8.07;;;;;;;;;;4992653;28;20046;-72
2022/12/24 07:47:58;;;;;;;17.70;8.35;;;;;;;;;;4992567;28;20477;-72
2022/12/24 07:50:24;;;;;;;19.55;8.70;;;;;;;;;;4992532;28;20030;-73
2022/12/24 07:52:50;;;;;;;18.23;8.05;;;;;;;;;;4992529;28;20037;-72
2022/12/24 07:55:16;;;;;;;11.43;6.80;;;;;;;;;;4992641;28;20038;-72
2022/12/24 07:57:42;;;;;;;17.45;7.18;;;;;;;;;;4992825;28;20031;-74
2022/12/24 08:00:08;;;;;;;18.05;7.18;;;;;;;;;;4992647;28;20549;-77
2022/12/24 08:02:35;;;;;;;13.25;5.97;;;;;;;;;;4992611;28;20085;-77
2022/12/24 08:05:01;;;;;;;15.50;6.50;;;;;;;;;;4992448;28;20109;-78
2022/12/24 08:07:27;;;;;;;15.25;6.28;;;;;;;;;;4992481;28;20536;-82
2022/12/24 08:09:53;;;;;;;21.45;6.35;;;;;;;;;;4992512;28;20034;-75
2022/12/24 08:12:19;;;;;;;17.67;5.78;;;;;;;;;;4992547;28;20031;-79
2022/12/24 08:14:45;;;;;;;14.65;6.13;;;;;;;;;;4992394;28;20042;-76
2022/12/24 08:17:11;;;;;;;15.95;5.75;;;;;;;;;;4992524;28;20046;-77
2022/12/24 08:19:37;;;;;;;17.50;5.40;;;;;;;;;;4994251;28;20026;-87
2022/12/24 08:22:03;;;;;;;13.70;4.80;;;;;;;;;;4996134;28;20062;-82
2022/12/24 08:24:29;;;;;;;14.02;4.88;;;;;;;;;;4996005;28;20053;-86
2022/12/24 08:26:55;;;;;;;14.60;5.15;;;;;;;;;;4995732;28;20023;-82
2022/12/24 08:29:21;;;;;;;15.57;4.78;;;;;;;;;;4996398;28;20026;-84
2022/12/24 08:31:47;;;;;;;14.20;4.30;;;;;;;;;;4995965;28;20033;-79
2022/12/24 08:34:13;;;;;;;14.88;4.28;;;;;;;;;;4996031;28;20113;-83
2022/12/24 08:36:39;;;;;;;14.77;4.32;;;;;;;;;;4996004;28;20033;-79
2022/12/24 08:39:07;;;;;;;11.25;3.90;;;;;;;;;;4995908;28;20531;-82
2022/12/24 08:41:33;;;;;;;16.02;3.90;;;;;;;;;;4995919;28;20050;-75
2022/12/24 08:43:59;;;;;;;11.90;3.90;;;;;;;;;;4995996;28;20058;-84
2022/12/24 08:46:26;;;;;;;13.98;4.20;;;;;;;;;;4995672;28;20022;-81
2022/12/24 08:48:52;;;;;;;13.98;3.45;;;;;;;;;;4995567;28;20067;-79
2022/12/24 08:51:18;;;;;;;15.27;3.53;;;;;;;;;;4995660;28;20424;-79
2022/12/24 08:53:44;;;;;;;20.92;4.28;;;;;;;;;;4995403;28;20069;-79
2022/12/24 08:56:10;;;;;;;14.77;3.58;;;;;;;;;;4995469;28;20088;-75
2022/12/24 08:58:37;;;;;;;16.73;3.95;;;;;;;;;;4995284;28;20034;-73
2022/12/24 09:01:13;;;;;;;23.70;4.65;;;15.80;82.80;;;;;;4995186;28;20049;-73
2022/12/24 09:03:40;;;;;;;23.20;4.40;;;;;;;;;;4995251;28;20099;-74
2022/12/24 09:06:06;;;;;;;16.60;3.95;;;15.80;77.50;;;;;;4995107;28;20109;-74
2022/12/24 09:08:33;;;;;;;16.48;3.80;;;;;;;;;;4995015;28;20080;-73
2022/12/24 09:11:23;;;;;;;22.90;4.78;;;15.90;73.40;;;;;;4994857;28;20026;-74
2022/12/24 09:13:49;;;;;;;19.38;3.95;;;;;;;;;;4994249;28;20050;-74
2022/12/24 09:16:15;;;;;;;14.02;3.55;;;;;;;;;;4994746;28;20037;-73
2022/12/24 09:18:41;;;;;;;18.92;3.60;;;;;;;;;;4977225;28;20389;-73
2022/12/24 09:21:16;;;;;;;19.58;3.90;;;15.80;82.30;;;;;;4994831;28;20031;-74
2022/12/24 09:23:44;;;;;;;13.65;3.80;;;15.80;80.70;;;;;;4977413;28;20030;-73
2022/12/24 09:26:21;;;;;;;16.77;3.47;;;15.90;82.50;;;;;;4994732;28;20034;-73
2022/12/24 09:28:47;;;;;;;13.40;3.65;;;15.90;78.10;;;;;;4994529;28;20133;-72
2022/12/24 09:31:14;;;;;;;19.63;4.30;;;;;;;;;;4994787;28;20089;-78
2022/12/24 09:33:40;;;;;;;25.05;4.55;;;15.80;80.30;;;;;;4994627;28;20070;-72
2022/12/24 09:36:06;;;;;;;12.20;3.45;;;;;;;;;;4994881;28;20038;-76
2022/12/24 09:38:33;;;;;;;22.20;3.70;;;;;;;;;;4994495;28;20469;-70
2022/12/24 09:41:00;;;;;;;15.50;3.13;;;15.90;81.40;;;;;;4994611;28;20041;-72
2022/12/24 09:43:30;;;;;;;18.60;3.38;;;15.80;81.70;;;;;;4994431;28;20030;-72
2022/12/24 09:45:56;;;;;;;;;;;15.90;82.70;;;;;;4994953;28;20026;-72
2022/12/24 09:48:27;;;;;;;14.45;3.45;;;16.00;82.40;;;;;;4994349;28;20501;-71
2022/12/24 09:50:53;;;;;;;20.05;3.72;;;;;;;;;;4994590;28;20087;-71
2022/12/24 09:53:26;;;;;;;17.45;3.70;;;15.90;77.40;;;;;;4994231;28;20026;-72
2022/12/24 09:56:01;;;;;;;18.52;4.05;;;16.50;76.80;;;;;;4994304;28;20057;-72
2022/12/24 09:58:34;;;;;;;15.50;3.60;;;15.90;82.50;;;;;;4994218;28;20097;-73
2022/12/24 10:01:00;;;;;;;13.77;3.50;;;;;;;;;;4994115;28;20374;-73
2022/12/24 10:03:27;;;;;;;16.95;3.60;;;;;;;;;;4994046;28;20072;-72
2022/12/24 10:06:05;;;;;;;13.50;3.58;;;15.90;78.10;;;;;;4994062;28;20101;-72
2022/12/24 10:08:48;;;;;;;15.82;3.72;;;15.90;78.30;;;;;;4994024;28;20034;-76
2022/12/24 10:11:26;;;;;;;14.48;3.05;;;15.90;79.30;;;;;;4994310;28;20033;-78
2022/12/24 10:14:20;;;;;;;14.65;3.17;;;15.90;79.70;;;;;;4993990;28;20043;-79
2022/12/24 10:17:13;;;;;;;11.65;2.90;;;15.80;78.80;;;;;;4993936;28;20061;-78
2022/12/24 10:20:06;;;;;;;15.10;3.63;;;15.90;82.30;;;;;;4993879;28;20101;-77
2022/12/24 10:22:32;;;;;;;14.18;3.05;;;;;;;;;;4994066;28;20054;-77
2022/12/24 10:25:24;;;;;;;11.35;2.90;;;16.00;75.60;;;;;;4993713;28;20110;-77
2022/12/24 10:27:52;;;;;;;11.77;2.97;;;15.90;81.40;;;;;;4993625;28;20093;-75
2022/12/24 10:30:21;;;;;;;11.63;3.05;;;15.90;76.10;;;;;;4993616;28;20121;-75
2022/12/24 10:32:50;;;;;;;7.70;2.70;;;15.90;77.30;;;;;;4993811;28;20045;-75
2022/12/24 10:35:16;;;;;;;17.13;3.78;;;;;;;;;;4993488;28;20042;-76
2022/12/24 10:37:44;;;;;;;11.50;2.60;;;16.00;75.60;;;;;;4976025;28;20392;-76
2022/12/24 10:40:36;;;;;;;12.02;3.60;;;15.90;75.20;;;;;;4993478;28;20041;-76
2022/12/24 10:43:17;;;;;;;13.38;3.47;;;15.90;76.10;;;;;;4982805;28;20073;-75
2022/12/24 10:45:47;;;;;;;;;;;15.90;71.40;;;;;;4993918;28;20034;-75
2022/12/24 10:48:27;;;;;;;17.23;3.10;;;15.90;68.50;;;;;;4993413;28;19985;-76
2022/12/24 10:51:02;;;;;;;13.50;2.83;;;15.90;70.60;;;;;;4993362;28;20026;-77
2022/12/24 10:53:43;;;;;;;13.82;3.17;;;15.80;70.40;;;;;;4993187;28;20038;-79
2022/12/24 10:56:11;;;;;;;18.15;3.67;;;15.90;74.80;;;;;;4993381;28;20112;-79
2022/12/24 10:58:49;;;;;;;15.75;3.15;;;15.80;74.20;;;;;;4993205;28;20035;-75
2022/12/24 11:01:15;;;;;;;12.73;3.20;;;;;;;;;;4993169;28;20444;-75
2022/12/24 11:03:42;;;;;;;19.15;3.15;;;;;;;;;;4993363;28;20022;-71
2022/12/24 11:06:20;;;;;;;16.88;3.55;;;15.90;69.30;;;;;;4993114;28;20034;-71
2022/12/24 11:08:46;;;;;;;16.95;3.38;;;15.80;71.50;;;;;;4993076;28;20113;-72
2022/12/24 11:11:18;;;;;;;13.38;3.97;;;15.90;69.00;;;;;;4992967;28;20037;-72
2022/12/24 11:13:50;;;;;;;16.38;3.97;;;15.90;70.20;;;;;;4992832;28;20084;-73
2022/12/24 11:16:34;;;;;;;16.80;3.50;;;15.90;69.50;;;;;;4992888;28;20054;-73
2022/12/24 11:19:14;;;;;;;13.35;3.55;;;15.90;72.60;;;;;;4993062;28;20137;-74
2022/12/24 11:21:40;;;;;;;12.50;2.92;;;;;;;;;;4992987;28;20026;-81
2022/12/24 11:24:11;;;;;;;14.77;3.70;;;15.80;68.80;;;;;;4992955;28;20057;-72
2022/12/24 11:26:39;;;;;;;12.15;3.50;;;15.90;74.50;;;;;;4992766;28;20030;-72
2022/12/24 11:29:11;;;;;;;13.77;3.15;;;15.90;74.60;;;;;;4992685;28;20069;-73
2022/12/24 11:31:37;;;;;;;17.17;3.47;;;;;;;;;;4992793;28;20428;-73
2022/12/24 11:34:25;;;;;;;11.15;3.17;;;15.80;72.70;;;;;;4992719;28;20034;-74
2022/12/24 11:36:53;;;;;;;11.32;2.92;;;16.00;72.10;;;;;;4992778;28;20517;-75
2022/12/24 11:39:24;;;;;;;13.85;3.25;;;16.00;73.00;;;;;;4992764;28;20505;-73
2022/12/24 11:41:52;;;;;;;14.73;3.17;;;16.00;73.00;;;;;;4992794;28;20034;-75
2022/12/24 11:44:26;;;;;;;15.68;3.47;;;16.10;68.40;;;;;;4992717;28;20034;-72
2022/12/24 11:46:55;;;;;;;11.45;2.78;;;;;;;;;;4992741;28;20022;-73
2022/12/24 11:49:30;;;;;;;14.07;3.35;;;16.10;67.70;;;;;;4992641;28;20389;-72
2022/12/24 11:52:05;;;;;;;15.65;3.30;;;16.10;67.40;;;;;;4992626;28;20362;-72
2022/12/24 11:54:36;;;;;;;17.48;3.15;;;16.00;72.90;;;;;;4993996;28;20034;-73
2022/12/24 11:57:03;;;;;;;10.63;3.08;;;16.10;72.90;;;;;;4996567;28;20027;-74
2022/12/24 11:59:46;;;;;;;16.25;3.13;;;13.60;65.70;;;;;;4996591;28;20029;-74
2022/12/24 12:02:12;;;;;;;10.45;2.90;;;;;;;;;;4996555;28;20022;-75
2022/12/24 12:04:39;;;;;;;12.30;3.25;;;16.20;72.70;;;;;;4996333;28;20034;-73
2022/12/24 12:07:40;;;;;;;12.02;3.88;;;16.20;67.20;;;;;;4996305;28;20461;-75
2022/12/24 12:10:23;;;;;;;15.30;3.45;;;16.30;73.20;;;;;;4995826;28;20097;-73
2022/12/24 12:13:03;;;;;;;14.73;3.63;;;16.40;74.70;;;;;;4996199;28;20034;-74
2022/12/24 12:15:53;;;;;;;15.45;3.33;;;16.40;73.40;;;;;;4996173;28;20476;-74
2022/12/24 12:18:23;;;;;;;11.45;3.22;;;16.50;72.80;;;;;;4982322;28;20045;-76
2022/12/24 12:20:54;;;;;;;;;;;16.40;73.40;;;;;;4996591;28;20380;-74
2022/12/24 12:23:27;;;;;;;7.57;2.90;;;16.50;72.50;;;;;;4996082;28;19952;-74
2022/12/24 12:26:06;;;;;;;15.27;3.65;;;16.50;70.70;;;;;;4996027;28;20662;-75
2022/12/24 12:29:10;;;;;;;17.27;3.78;;;16.50;76.90;;;;;;4995612;28;20074;-74
2022/12/24 12:31:47;;;;;;;18.08;3.00;;;16.60;71.00;;;;;;4966027;28;20480;-74
2022/12/24 12:34:38;;;;;;;16.98;3.80;;;16.50;69.60;;;;;;4995693;28;20400;-74
2022/12/24 12:37:12;;;;;;;14.63;3.28;;;16.50;70.70;;;;;;4995798;28;20033;-72
2022/12/24 12:39:38;;;;;;;17.55;3.58;;;;;;;;;;4995708;28;20027;-72
2022/12/24 12:42:30;;;;;;;22.00;4.30;;;16.50;70.50;;;;;;4995644;28;20468;-72
2022/12/24 12:45:21;;;;;;;15.35;3.05;;;16.50;71.20;;;;;;4995678;28;20334;-72
2022/12/24 12:47:49;;;;;;;17.25;3.67;;;16.60;70.70;;;;;;4995590;28;20412;-73
2022/12/24 12:51:25;;;;;;;21.90;3.97;;;16.70;70.10;;;;;;4995557;28;20026;-72
2022/12/24 12:54:24;;;;;;;14.82;3.95;;;16.80;71.10;;;;;;4898226;29;20041;-75
2022/12/24 12:56:55;;;;;;;25.08;3.80;;;17.00;75.90;;;;;;4995400;28;20045;-74
2022/12/24 12:59:39;;;;;;;13.68;3.08;;;17.10;70.90;;;;;;4995415;28;20025;-75
2022/12/24 13:02:26;;;;;;;14.95;3.85;;;17.10;71.80;;;;;;4995514;28;20109;-75
2022/12/24 13:05:03;;;;;;;18.88;3.10;;;17.00;71.60;;;;;;4994789;28;20354;-75
2022/12/24 13:07:38;;;;;;;11.35;2.80;;;17.00;72.10;;;;;;4995167;28;20682;-75
2022/12/24 13:10:40;;;;;;;14.00;2.85;;;16.90;72.50;;;;;;4995115;28;20035;-75
2022/12/24 13:13:43;;;;;;;15.75;3.10;;;16.90;72.70;;;;;;4994973;28;20035;-75
2022/12/24 13:16:30;;;;;;;20.13;3.95;;;16.90;71.60;;;;;;4995108;28;20182;-74
2022/12/24 13:19:15;;;;;;;12.90;2.75;;;16.90;70.70;;;;;;4994898;28;20393;-76
2022/12/24 13:21:44;;;;;;;14.75;3.05;;;16.90;77.50;;;;;;4994915;28;20030;-78
2022/12/24 13:24:24;;;;;;;13.15;3.10;;;16.80;73.20;;;;;;4977434;28;20038;-76
2022/12/24 13:27:17;;;;;;;17.27;3.35;;;16.70;73.40;;;;;;4994667;28;20018;-76
2022/12/24 13:30:05;;;;;;;12.55;2.78;;;16.70;73.30;;;;;;4994851;28;20046;-77
2022/12/24 13:32:38;;;;;;;16.60;3.33;;;16.70;79.20;;;;;;4994739;28;20116;-76
2022/12/24 13:35:28;;;;;;;13.02;3.38;;;16.70;79.20;;;;;;4994623;28;20047;-78
2022/12/24 13:38:17;;;;;;;13.93;3.50;;;16.70;78.40;;;;;;4994464;28;20477;-75
2022/12/24 13:40:43;;;;;;;11.50;2.88;;;;;;;;;;4994480;28;20101;-76
2022/12/24 13:43:11;;;;;;;9.95;2.88;;;;;;;;;;4994672;28;20416;-76
2022/12/24 13:45:37;;;;;;;11.70;3.20;;;;;;;;;;4994536;28;20031;-79
2022/12/24 13:48:05;;;;;;;10.70;3.00;;;16.50;74.50;;;;;;4994418;28;20394;-78
2022/12/24 13:50:41;;;;;;;13.13;2.58;;;16.80;74.40;;;;;;4994378;28;20066;-72
2022/12/24 13:53:51;;;;;;;10.55;3.30;;;16.80;74.30;;;;;;4994202;28;20026;-72
2022/12/24 13:56:17;;;;;;;11.68;2.53;;;;;;;;;;4990189;28;20096;-72
2022/12/24 13:58:53;;;;;;;8.32;3.03;;;16.70;76.20;;;;;;4994205;28;20110;-72
2022/12/24 14:01:31;;;;;;;14.98;2.97;;;16.70;82.10;;;;;;4994196;28;20062;-73
2022/12/24 14:03:59;;;;;;;11.80;3.65;;;16.70;82.30;;;;;;4994180;28;20084;-72
2022/12/24 14:06:30;;;;;;;16.95;3.60;;;16.70;76.90;;;;;;4994068;28;20058;-73
2022/12/24 14:08:57;;;;;;;;;;;16.60;83.40;;;;;;4994525;28;20030;-72
2022/12/24 14:11:24;;;;;;;12.50;2.50;;;16.70;82.60;;;;;;4993905;28;19906;-71
2022/12/24 14:14:02;;;;;;;11.63;3.17;;;16.70;76.90;;;;;;4994086;28;20109;-72
2022/12/24 14:16:29;;;;;;;15.20;3.28;;;16.80;82.30;;;;;;4993156;28;20050;-71